Adolphus, Kentucky
Current Conditions -  °F | °C
As of 10:53 PM on Sunday 21 Dec 2014 (Local Time) from KBWG Reporting Station
Broken Clouds Broken Clouds  
Wind Chill: 32°   Ceiling: 4500
Heat Index: 36°   Visibility: 10mi
Dew Point: 28°   Wind: 5mph
Humidity: 73%   Direction: 40°NE
Pressure: 30.03"   Gusts: NA
Location:  36.65°N, 86.26°W
Report Text: KBWG 220453Z AUTO 04004KT 10SM BKN045 02/M02 A3003 RMK AO2 SLP173 T00221022
Loading
Personal Weather Stations






























Interactive Weather Map New forecast layout! Learn more

10-Day Weather Forecast

Advertisements
Track Severe Weather on mobile